createdAt,value
2022-12-23T00:00:08.314Z,99517.02
2022-12-23T00:03:14.951Z,99517.02
2022-12-23T00:06:01.662Z,99520.88
2022-12-23T00:08:48.211Z,99516.64
2022-12-23T00:11:34.663Z,99518.10
2022-12-23T00:14:39.671Z,99515.80
2022-12-23T00:17:26.187Z,99508.28
2022-12-23T00:20:13.838Z,99502.65
2022-12-23T00:23:06.378Z,99504.65
2022-12-23T00:25:52.870Z,99510.98
2022-12-23T00:28:39.294Z,99508.30
2022-12-23T00:31:25.973Z,99506.26
2022-12-23T00:34:13.083Z,99504.30
2022-12-23T00:36:59.495Z,99498.54
2022-12-23T00:40:06.748Z,99506.83
2022-12-23T00:42:53.662Z,99509.85
2022-12-23T00:45:40.287Z,99510.09
2022-12-23T00:48:45.347Z,99514.21
2022-12-23T00:51:32.121Z,99512.70
2022-12-23T00:54:18.455Z,99516.26
2022-12-23T00:57:05.013Z,99509.02
2022-12-23T00:59:51.249Z,99505.95
2022-12-23T01:02:56.806Z,99496.06
2022-12-23T01:05:43.409Z,99490.08
2022-12-23T01:08:29.793Z,99489.09
2022-12-23T01:11:16.234Z,99485.67
2022-12-23T01:14:02.467Z,99482.64
2022-12-23T01:16:49.065Z,99478.46
2022-12-23T01:19:35.528Z,99474.93
2022-12-23T01:22:21.799Z,99471.34
2022-12-23T01:25:08.408Z,99467.28
2022-12-23T01:27:54.534Z,99466.36
2022-12-23T01:30:40.863Z,99458.20
2022-12-23T01:33:27.344Z,99458.53
2022-12-23T01:36:13.742Z,99460.17
2022-12-23T01:39:00.170Z,99460.34
2022-12-23T01:42:05.050Z,99457.98
2022-12-23T01:45:01.409Z,99447.63
2022-12-23T01:47:55.077Z,99448.15
2022-12-23T01:50:53.429Z,99443.65
2022-12-23T01:53:45.401Z,99442.20
2022-12-23T01:56:38.889Z,99439.60
2022-12-23T01:59:44.046Z,99433.08
2022-12-23T02:02:49.506Z,99431.50
2022-12-23T02:05:35.687Z,99427.98
2022-12-23T02:08:40.654Z,99431.06
2022-12-23T02:11:51.476Z,99428.80
2022-12-23T02:15:05.538Z,99425.45
2022-12-23T02:18:07.178Z,99420.00
2022-12-23T02:21:05.986Z,99419.70
2022-12-23T02:24:25.624Z,99424.34
2022-12-23T02:27:22.547Z,99420.86
2022-12-23T02:30:30.205Z,99425.69
2022-12-23T02:33:57.869Z,99421.98
2022-12-23T02:36:56.309Z,99418.84
2022-12-23T02:39:47.108Z,99419.71
2022-12-23T02:42:43.496Z,99422.93
2022-12-23T02:45:29.618Z,99423.64
2022-12-23T02:48:34.503Z,99423.36
2022-12-23T02:51:22.333Z,99428.70
2022-12-23T02:54:11.472Z,99425.77
2022-12-23T02:56:58.432Z,99429.33
2022-12-23T02:59:46.687Z,99424.70
2022-12-23T03:02:34.395Z,99423.44
2022-12-23T03:05:27.084Z,99424.59
2022-12-23T03:08:18.995Z,99423.36
2022-12-23T03:11:06.326Z,99420.22
2022-12-23T03:14:07.020Z,99419.48
2022-12-23T03:17:20.928Z,99420.01
2022-12-23T03:20:17.086Z,99417.75
2022-12-23T03:23:19.202Z,99416.94
2022-12-23T03:26:16.430Z,99411.23
2022-12-23T03:29:10.219Z,99410.06
2022-12-23T03:31:58.324Z,99413.53
2022-12-23T03:34:46.502Z,99413.80
2022-12-23T03:37:33.963Z,99413.61
2022-12-23T03:40:23.396Z,99404.17
2022-12-23T03:43:30.974Z,99399.96
2022-12-23T03:46:19.701Z,99398.73
2022-12-23T03:49:08.982Z,99403.70
2022-12-23T03:51:58.714Z,99411.33
2022-12-23T03:54:55.575Z,99400.39
2022-12-23T03:57:45.042Z,99402.55
2022-12-23T04:00:34.995Z,99399.73
2022-12-23T04:03:34.638Z,99398.41
2022-12-23T04:06:21.019Z,99397.96
2022-12-23T04:09:07.004Z,99396.09
2022-12-23T04:11:53.692Z,99397.08
2022-12-23T04:14:45.622Z,99395.98
2022-12-23T04:17:32.872Z,99398.48
2022-12-23T04:20:19.693Z,99396.36
2022-12-23T04:23:06.033Z,99390.66
2022-12-23T04:25:52.800Z,99391.84
2022-12-23T04:28:38.830Z,99383.52
2022-12-23T04:31:25.459Z,99380.40
2022-12-23T04:34:11.795Z,99381.05
2022-12-23T04:36:57.988Z,99374.92
2022-12-23T04:39:44.406Z,99367.89
2022-12-23T04:42:30.980Z,99368.79
2022-12-23T04:45:17.410Z,99368.17
2022-12-23T04:48:03.713Z,99367.05
2022-12-23T04:50:50.226Z,99362.23
2022-12-23T04:53:37.112Z,99359.06
2022-12-23T04:56:23.421Z,99355.52
2022-12-23T04:59:10.553Z,99355.84
2022-12-23T05:01:58.011Z,99354.86
2022-12-23T05:04:44.621Z,99355.06
2022-12-23T05:07:31.270Z,99353.38
2022-12-23T05:10:17.576Z,99342.73
2022-12-23T05:13:04.040Z,99341.88
2022-12-23T05:15:50.986Z,99344.70
2022-12-23T05:18:37.525Z,99344.03
2022-12-23T05:21:23.875Z,99346.96
2022-12-23T05:24:10.177Z,99346.73
2022-12-23T05:27:00.048Z,99345.02
2022-12-23T05:29:46.969Z,99344.98
2022-12-23T05:32:33.492Z,99345.02
2022-12-23T05:35:19.962Z,99343.30
2022-12-23T05:38:06.388Z,99339.42
2022-12-23T05:40:52.523Z,99341.06
2022-12-23T05:43:38.855Z,99340.55
2022-12-23T05:46:27.046Z,99343.39
2022-12-23T05:49:13.858Z,99339.33
2022-12-23T05:52:00.444Z,99342.60
2022-12-23T05:54:47.126Z,99339.36
2022-12-23T05:57:33.692Z,99345.84
2022-12-23T06:00:20.610Z,99342.63
2022-12-23T06:03:07.318Z,99341.48
2022-12-23T06:05:54.600Z,99342.35
2022-12-23T06:08:40.972Z,99342.72
2022-12-23T06:11:27.910Z,99346.65
2022-12-23T06:14:14.434Z,99352.55
2022-12-23T06:17:00.647Z,99356.15
2022-12-23T06:19:47.496Z,99350.08
2022-12-23T06:22:33.959Z,99349.84
2022-12-23T06:25:20.254Z,99348.30
2022-12-23T06:28:08.061Z,99346.11
2022-12-23T06:30:57.408Z,99346.81
2022-12-23T06:33:44.240Z,99348.15
2022-12-23T06:36:30.554Z,99345.73
2022-12-23T06:39:16.812Z,99344.92
2022-12-23T06:42:03.320Z,99346.38
2022-12-23T06:44:49.905Z,99356.23
2022-12-23T06:47:36.585Z,99356.48
2022-12-23T06:50:23.006Z,99354.11
2022-12-23T06:53:09.395Z,99351.89
2022-12-23T06:56:01.850Z,99349.84
2022-12-23T06:58:48.518Z,99347.91
2022-12-23T07:01:34.724Z,99344.70
2022-12-23T07:04:21.487Z,99345.27
2022-12-23T07:07:07.988Z,99347.21
2022-12-23T07:09:54.468Z,99345.13
2022-12-23T07:12:44.787Z,99344.14
2022-12-23T07:15:33.532Z,99345.86
2022-12-23T07:18:22.021Z,99337.56
2022-12-23T07:21:16.317Z,99341.12
2022-12-23T07:24:07.244Z,99341.48
2022-12-23T07:26:55.916Z,99345.42
2022-12-23T07:29:42.463Z,99341.59
2022-12-23T07:32:28.997Z,99340.42
2022-12-23T07:35:15.395Z,99340.81
2022-12-23T07:38:01.739Z,99338.30
2022-12-23T07:40:49.127Z,99344.83
2022-12-23T07:43:35.351Z,99346.04
2022-12-23T07:46:21.628Z,99347.94
2022-12-23T07:49:08.295Z,99347.05
2022-12-23T07:51:54.513Z,99343.70
2022-12-23T07:54:40.823Z,99341.32
2022-12-23T07:57:27.279Z,99345.47
2022-12-23T08:00:14.291Z,99344.66
2022-12-23T08:03:00.896Z,99346.23
2022-12-23T08:05:47.568Z,99348.42
2022-12-23T08:08:33.975Z,99340.08
2022-12-23T08:11:20.154Z,99348.35
2022-12-23T08:14:07.111Z,99352.91
2022-12-23T08:16:53.505Z,99349.02
2022-12-23T08:19:39.823Z,99348.97
2022-12-23T08:22:26.059Z,99340.30
2022-12-23T08:25:12.591Z,99333.72
2022-12-23T08:27:59.082Z,99338.34
2022-12-23T08:30:45.810Z,99339.90
2022-12-23T08:33:32.748Z,99336.89
2022-12-23T08:36:23.930Z,99342.41
2022-12-23T08:39:10.990Z,99336.83
2022-12-23T08:41:57.096Z,99333.14
2022-12-23T08:44:43.348Z,99333.71
2022-12-23T08:47:29.666Z,99334.81
2022-12-23T08:50:15.918Z,99335.63
2022-12-23T08:53:02.159Z,99333.27
2022-12-23T08:55:48.470Z,99329.42
2022-12-23T08:58:38.738Z,99330.07
2022-12-23T09:01:26.817Z,99328.09
2022-12-23T09:04:13.241Z,99321.38
2022-12-23T09:06:59.564Z,99318.87
2022-12-23T09:09:45.841Z,99325.88
2022-12-23T09:12:32.282Z,99323.34
2022-12-23T09:15:18.839Z,99320.50
2022-12-23T09:18:05.991Z,99325.27
2022-12-23T09:21:03.099Z,99328.94
2022-12-23T09:23:49.694Z,99328.50
2022-12-23T09:26:36.211Z,99326.37
2022-12-23T09:29:23.198Z,99322.53
2022-12-23T09:32:09.727Z,99324.42
2022-12-23T09:34:57.508Z,99321.93
2022-12-23T09:37:44.237Z,99322.02
2022-12-23T09:40:32.397Z,99321.28
2022-12-23T09:43:34.812Z,99315.55
2022-12-23T09:46:25.539Z,99321.58
2022-12-23T09:49:13.157Z,99319.88
2022-12-23T09:52:03.984Z,99312.30
2022-12-23T09:54:52.792Z,99315.17
2022-12-23T09:58:01.118Z,99319.21
2022-12-23T10:00:56.976Z,99314.00
2022-12-23T10:04:15.287Z,99325.05
2022-12-23T10:07:04.303Z,99320.71
2022-12-23T10:09:51.423Z,99320.09
2022-12-23T10:12:42.324Z,99313.74
2022-12-23T10:15:38.152Z,99318.94
2022-12-23T10:18:28.684Z,99320.44
2022-12-23T10:21:42.254Z,99323.22
2022-12-23T10:24:37.971Z,99318.58
2022-12-23T10:27:32.273Z,99319.12
2022-12-23T10:30:54.007Z,99319.56
2022-12-23T10:33:36.663Z,99320.75
2022-12-23T10:36:41.145Z,99320.86
2022-12-23T10:39:42.381Z,99319.52
2022-12-23T10:42:34.074Z,99320.87
2022-12-23T10:45:41.399Z,99321.83
2022-12-23T10:48:40.032Z,99321.36
2022-12-23T10:51:34.380Z,99323.21
2022-12-23T10:54:31.026Z,99322.15
2022-12-23T10:57:18.145Z,99326.03
2022-12-23T11:00:17.210Z,99325.33
2022-12-23T11:03:13.537Z,99322.00
2022-12-23T11:06:00.006Z,99322.30
2022-12-23T11:08:46.071Z,99325.40
2022-12-23T11:11:54.328Z,99329.63
2022-12-23T11:14:41.504Z,99330.07
2022-12-23T11:17:29.705Z,99330.48
2022-12-23T11:20:17.772Z,99327.99
2022-12-23T11:23:06.140Z,99332.90
2022-12-23T11:26:13.429Z,99331.30
2022-12-23T11:29:07.655Z,99328.13
2022-12-23T11:31:54.171Z,99329.10
2022-12-23T11:34:40.405Z,99326.65
2022-12-23T11:37:47.540Z,99328.48
2022-12-23T11:40:36.091Z,99325.31
2022-12-23T11:43:23.415Z,99328.17
2022-12-23T11:46:35.619Z,99326.83
2022-12-23T11:49:31.587Z,99322.74
2022-12-23T11:52:19.687Z,99318.88
2022-12-23T11:55:07.170Z,99317.25
2022-12-23T11:57:53.755Z,99318.96
2022-12-23T12:00:41.300Z,99316.90
2022-12-23T12:03:30.931Z,99316.49
2022-12-23T12:06:17.199Z,99316.36
2022-12-23T12:09:03.795Z,99317.15
2022-12-23T12:11:55.132Z,99318.98
2022-12-23T12:14:46.936Z,99323.27
2022-12-23T12:17:40.726Z,99322.52
2022-12-23T12:20:44.333Z,99320.78
2022-12-23T12:24:08.134Z,99320.23
2022-12-23T12:27:01.386Z,99319.60
2022-12-23T12:29:55.629Z,99322.15
2022-12-23T12:33:01.059Z,99326.21
2022-12-23T12:35:53.607Z,99329.60
2022-12-23T12:38:40.702Z,99335.48
2022-12-23T12:41:34.507Z,99341.18
2022-12-23T12:44:32.135Z,99345.02
2022-12-23T12:50:34.083Z,99345.33
2022-12-23T12:53:21.146Z,99349.70
2022-12-23T12:56:12.534Z,99356.51
2022-12-23T12:58:58.886Z,99358.08
2022-12-23T13:01:53.144Z,99358.63
2022-12-23T13:05:03.508Z,99362.87
2022-12-23T13:08:08.970Z,99367.87
2022-12-23T13:10:57.780Z,99376.33
2022-12-23T13:14:26.318Z,99376.30
2022-12-23T13:17:21.015Z,99384.30
2022-12-23T13:20:19.937Z,99385.05
2022-12-23T13:23:42.146Z,99387.80
2022-12-23T13:26:40.521Z,99396.66
2022-12-23T13:29:42.355Z,99400.86
2022-12-23T13:32:28.837Z,99400.34
2022-12-23T13:35:23.681Z,99396.11
2022-12-23T13:38:50.054Z,99394.57
2022-12-23T13:41:40.764Z,99401.80
2022-12-23T13:44:28.070Z,99398.26
2022-12-23T13:47:21.243Z,99391.48
2022-12-23T13:50:12.644Z,99386.23
2022-12-23T13:53:16.304Z,99388.14
2022-12-23T13:56:11.852Z,99386.33
2022-12-23T13:58:58.596Z,99387.54
2022-12-23T14:01:47.770Z,99383.30
2022-12-23T14:04:59.050Z,99380.56
2022-12-23T14:07:45.308Z,99381.45
2022-12-23T14:10:32.075Z,99387.20
2022-12-23T14:13:18.712Z,99388.01
2022-12-23T14:16:11.082Z,99387.17
2022-12-23T14:19:12.472Z,99388.53
2022-12-23T14:22:11.866Z,99392.29
2022-12-23T14:25:29.488Z,99398.66
2022-12-23T14:28:26.653Z,99400.19
2022-12-23T14:31:29.205Z,99393.34
2022-12-23T14:34:18.567Z,99391.61
2022-12-23T14:37:24.853Z,99395.08
2022-12-23T14:40:39.563Z,99392.02
2022-12-23T14:43:27.221Z,99394.52
2022-12-23T14:46:43.278Z,99398.43
2022-12-23T14:49:41.192Z,99396.28
2022-12-23T14:52:48.077Z,99398.86
2022-12-23T14:55:40.197Z,99397.86
2022-12-23T14:58:30.015Z,99398.31
2022-12-23T15:01:37.271Z,99394.85
2022-12-23T15:04:26.353Z,99400.82
2022-12-23T15:07:27.771Z,99405.48
2022-12-23T15:10:22.514Z,99403.45
2022-12-23T15:13:11.293Z,99403.89
2022-12-23T15:16:01.817Z,99408.50
2022-12-23T15:18:55.697Z,99405.11
2022-12-23T15:21:44.906Z,99404.85
2022-12-23T15:24:33.442Z,99399.81
2022-12-23T15:27:28.740Z,99399.01
2022-12-23T15:30:16.272Z,99398.92
2022-12-23T15:33:21.471Z,99398.63
2022-12-23T15:36:12.750Z,99399.00
2022-12-23T15:39:00.359Z,99399.34
2022-12-23T15:41:47.354Z,99403.84
2022-12-23T15:44:36.677Z,99408.05
2022-12-23T15:47:30.292Z,99406.17
2022-12-23T15:50:17.757Z,99401.38
2022-12-23T15:53:05.411Z,99397.11
2022-12-23T15:55:51.535Z,99395.48
2022-12-23T15:58:39.384Z,99396.72
2022-12-23T16:01:26.480Z,99398.91
2022-12-23T16:04:18.709Z,99399.52
2022-12-23T16:07:05.315Z,99398.66
2022-12-23T16:09:53.688Z,99404.45
2022-12-23T16:12:40.005Z,99405.80
2022-12-23T16:15:27.565Z,99407.70
2022-12-23T16:18:19.572Z,99409.50
2022-12-23T16:21:06.189Z,99412.06
2022-12-23T16:23:52.506Z,99408.64
2022-12-23T16:27:01.299Z,99408.92
2022-12-23T16:30:07.730Z,99408.89
2022-12-23T16:32:55.625Z,99409.35
2022-12-23T16:35:42.775Z,99406.43
2022-12-23T16:38:29.094Z,99407.77
2022-12-23T16:41:15.500Z,99410.02
2022-12-23T16:44:01.881Z,99406.73
2022-12-23T16:46:49.313Z,99411.03
2022-12-23T16:49:35.948Z,99411.08
2022-12-23T16:52:22.605Z,99410.59
2022-12-23T16:55:14.655Z,99415.04
2022-12-23T16:58:00.937Z,99413.21
2022-12-23T17:00:47.519Z,99416.06
2022-12-23T17:03:33.741Z,99418.88
2022-12-23T17:06:20.085Z,99421.53
2022-12-23T17:09:07.177Z,99419.98
2022-12-23T17:11:53.843Z,99420.02
2022-12-23T17:14:40.391Z,99421.31
2022-12-23T17:17:26.997Z,99421.36
2022-12-23T17:20:13.076Z,99421.28
2022-12-23T17:22:59.379Z,99426.30
2022-12-23T17:25:45.996Z,99429.63
2022-12-23T17:28:32.580Z,99430.56
2022-12-23T17:31:26.250Z,99423.19
2022-12-23T17:34:17.569Z,99421.22
2022-12-23T17:37:11.974Z,99415.27
2022-12-23T17:39:58.246Z,99421.67
2022-12-23T17:42:44.641Z,99418.02
2022-12-23T17:45:31.928Z,99413.76
2022-12-23T17:48:23.101Z,99412.32
2022-12-23T17:51:15.528Z,99414.77
2022-12-23T17:54:02.235Z,99418.45
2022-12-23T17:56:48.621Z,99424.84
2022-12-23T17:59:35.217Z,99431.56
2022-12-23T18:02:26.650Z,99422.86
2022-12-23T18:05:25.968Z,99419.23
2022-12-23T18:08:12.750Z,99415.83
2022-12-23T18:10:59.411Z,99413.55
2022-12-23T18:13:47.139Z,99411.69
2022-12-23T18:16:33.675Z,99409.12
2022-12-23T18:19:20.550Z,99413.98
2022-12-23T18:22:06.859Z,99419.66
2022-12-23T18:24:58.937Z,99424.00
2022-12-23T18:27:45.920Z,99430.52
2022-12-23T18:30:32.159Z,99430.44
2022-12-23T18:33:18.340Z,99422.13
2022-12-23T18:36:05.189Z,99417.14
2022-12-23T18:38:52.636Z,99416.30
2022-12-23T18:41:40.055Z,99416.81
2022-12-23T18:44:26.766Z,99413.73
2022-12-23T18:47:13.065Z,99404.21
2022-12-23T18:49:59.654Z,99401.08
2022-12-23T18:52:46.707Z,99395.36
2022-12-23T18:55:33.419Z,99384.55
2022-12-23T18:58:19.617Z,99380.51
2022-12-23T19:01:06.026Z,99377.89
2022-12-23T19:03:52.421Z,99377.63
2022-12-23T19:06:39.147Z,99382.15
2022-12-23T19:09:25.382Z,99378.37
2022-12-23T19:12:12.091Z,99368.73
2022-12-23T19:14:58.623Z,99368.21
2022-12-23T19:17:45.046Z,99369.36
2022-12-23T19:20:31.270Z,99356.23
2022-12-23T19:23:17.862Z,99352.27
2022-12-23T19:26:06.301Z,99346.69
2022-12-23T19:28:52.630Z,99344.45
2022-12-23T19:31:39.539Z,99340.94
2022-12-23T19:34:26.027Z,99331.45
2022-12-23T19:37:12.520Z,99330.75
2022-12-23T19:39:59.400Z,99336.58
2022-12-23T19:42:45.921Z,99341.37
2022-12-23T19:45:32.450Z,99352.77
2022-12-23T19:48:18.941Z,99344.35
2022-12-23T19:51:07.874Z,99336.23
2022-12-23T19:53:54.374Z,99341.23
2022-12-23T19:56:40.734Z,99346.84
2022-12-23T19:59:27.423Z,99343.29
2022-12-23T20:02:15.500Z,99338.91
2022-12-23T20:05:01.744Z,99328.52
2022-12-23T20:07:47.888Z,99328.35
2022-12-23T20:10:34.122Z,99332.27
2022-12-23T20:13:20.348Z,99331.77
2022-12-23T20:16:07.096Z,99330.59
2022-12-23T20:18:53.567Z,99329.80
2022-12-23T20:21:40.176Z,99333.41
2022-12-23T20:24:26.732Z,99331.35
2022-12-23T20:27:15.739Z,99336.51
2022-12-23T20:30:02.577Z,99335.60
2022-12-23T20:32:48.947Z,99331.38
2022-12-23T20:35:36.332Z,99334.02
2022-12-23T20:38:22.938Z,99327.02
2022-12-23T20:41:10.980Z,99318.26
2022-12-23T20:44:32.485Z,99315.02
2022-12-23T20:47:07.070Z,99319.41
2022-12-23T20:49:53.564Z,99325.90
2022-12-23T20:52:39.932Z,99331.94
2022-12-23T20:55:26.230Z,99328.39
2022-12-23T20:58:31.275Z,99326.27
2022-12-23T21:01:17.770Z,99334.02
2022-12-23T21:04:15.948Z,99326.45
2022-12-23T21:07:02.315Z,99328.37
2022-12-23T21:09:48.448Z,99334.63
2022-12-23T21:12:34.676Z,99330.44
2022-12-23T21:15:22.824Z,99325.77
2022-12-23T21:18:09.174Z,99323.98
2022-12-23T21:20:59.927Z,99329.90
2022-12-23T21:23:46.709Z,99322.94
2022-12-23T21:26:34.161Z,99320.19
2022-12-23T21:29:20.667Z,99320.19
2022-12-23T21:32:07.038Z,99313.45
2022-12-23T21:34:53.640Z,99316.09
2022-12-23T21:37:40.104Z,99313.73
2022-12-23T21:40:27.174Z,99315.40
2022-12-23T21:43:13.654Z,99306.88
2022-12-23T21:46:04.568Z,99298.60
2022-12-23T21:48:51.020Z,99290.13
2022-12-23T21:51:40.684Z,99288.98
2022-12-23T21:54:27.461Z,99280.73
2022-12-23T21:57:13.959Z,99283.05
2022-12-23T22:00:00.350Z,99279.03
2022-12-23T22:02:46.999Z,99276.05
2022-12-23T22:05:33.190Z,99275.59
2022-12-23T22:08:19.734Z,99273.73
2022-12-23T22:11:07.591Z,99267.19
2022-12-23T22:13:55.134Z,99264.20
2022-12-23T22:16:41.615Z,99259.26
2022-12-23T22:19:28.018Z,99258.04
2022-12-23T22:22:14.411Z,99254.80
2022-12-23T22:25:00.564Z,99251.55
2022-12-23T22:27:47.177Z,99247.61
2022-12-23T22:30:33.265Z,99242.61
2022-12-23T22:33:21.169Z,99245.23
2022-12-23T22:36:09.413Z,99245.61
2022-12-23T22:38:57.407Z,99241.48
2022-12-23T22:41:43.918Z,99236.30
2022-12-23T22:44:30.160Z,99232.55
2022-12-23T22:47:16.333Z,99229.91
2022-12-23T22:50:03.047Z,99221.58
2022-12-23T22:52:49.313Z,99211.59
2022-12-23T22:55:35.311Z,99204.09
2022-12-23T22:58:21.752Z,99199.17
2022-12-23T23:01:13.065Z,99203.66
2022-12-23T23:04:00.818Z,99205.09
2022-12-23T23:06:47.186Z,99203.92
2022-12-23T23:09:34.090Z,99200.27
2022-12-23T23:12:20.605Z,99191.00
2022-12-23T23:15:07.725Z,99177.88
2022-12-23T23:17:55.362Z,99174.30
2022-12-23T23:20:42.039Z,99172.93
2022-12-23T23:23:28.340Z,99168.78
2022-12-23T23:26:15.107Z,99169.91
2022-12-23T23:29:01.543Z,99174.89
2022-12-23T23:31:47.940Z,99177.73
2022-12-23T23:34:34.718Z,99183.08
2022-12-23T23:37:21.447Z,99180.63
2022-12-23T23:40:08.245Z,99181.33
2022-12-23T23:42:54.847Z,99186.27
2022-12-23T23:45:41.420Z,99186.56
2022-12-23T23:48:27.609Z,99187.95
2022-12-23T23:51:14.035Z,99191.94
2022-12-23T23:54:00.652Z,99188.79
2022-12-23T23:56:46.810Z,99188.15
2022-12-23T23:59:33.253Z,99187.46
